createdAt,value
2022-12-16T00:01:18.042Z,-0.10
2022-12-16T00:03:51.966Z,-0.20
2022-12-16T00:06:21.462Z,-0.20
2022-12-16T00:08:48.327Z,-0.10
2022-12-16T00:11:15.375Z,-0.20
2022-12-16T00:13:42.196Z,-0.20
2022-12-16T00:16:15.286Z,-0.20
2022-12-16T00:18:42.522Z,-0.30
2022-12-16T00:21:10.474Z,-0.30
2022-12-16T00:23:39.766Z,-0.40
2022-12-16T00:26:06.887Z,-0.30
2022-12-16T00:28:34.005Z,-0.30
2022-12-16T00:31:00.779Z,-0.40
2022-12-16T00:33:28.624Z,-0.40
2022-12-16T00:35:57.208Z,-0.40
2022-12-16T00:38:29.484Z,-0.50
2022-12-16T00:40:56.345Z,-0.50
2022-12-16T00:43:23.410Z,-0.50
2022-12-16T00:45:51.829Z,-0.50
2022-12-16T00:48:23.182Z,-0.50
2022-12-16T00:50:55.224Z,-0.50
2022-12-16T00:53:24.791Z,-0.50
2022-12-16T00:56:03.490Z,-0.50
2022-12-16T00:58:30.570Z,-0.50
2022-12-16T01:00:57.648Z,-0.60
2022-12-16T01:03:24.521Z,-0.50
2022-12-16T01:05:51.883Z,-0.60
2022-12-16T01:08:20.263Z,-0.50
2022-12-16T01:11:13.066Z,-0.50
2022-12-16T01:13:42.403Z,-0.50
2022-12-16T01:16:09.181Z,-0.50
2022-12-16T01:18:36.632Z,-0.50
2022-12-16T01:21:06.584Z,-0.40
2022-12-16T01:23:34.146Z,-0.50
2022-12-16T01:26:02.103Z,-0.50
2022-12-16T01:28:30.163Z,-0.50
2022-12-16T01:31:01.527Z,-0.50
2022-12-16T01:33:31.891Z,-0.50
2022-12-16T01:36:05.686Z,-0.40
2022-12-16T01:38:33.448Z,-0.40
2022-12-16T01:41:01.957Z,-0.40
2022-12-16T01:43:35.973Z,-0.30
2022-12-16T01:46:12.068Z,-0.30
2022-12-16T01:48:54.394Z,-0.20
2022-12-16T01:51:39.973Z,-0.30
2022-12-16T01:54:16.767Z,-0.20
2022-12-16T01:56:54.111Z,-0.10
2022-12-16T01:59:25.436Z,-0.10
2022-12-16T02:01:53.511Z,0.00
2022-12-16T02:04:21.146Z,0.10
2022-12-16T02:06:48.346Z,0.10
2022-12-16T02:09:17.762Z,0.20
2022-12-16T02:12:08.866Z,0.20
2022-12-16T02:15:18.159Z,0.30
2022-12-16T02:18:55.263Z,0.40
2022-12-16T02:21:48.942Z,0.40
2022-12-16T02:24:43.025Z,0.50
2022-12-16T02:27:52.486Z,0.50
2022-12-16T02:31:25.223Z,0.50
2022-12-16T02:34:25.209Z,0.50
2022-12-16T02:37:34.789Z,0.60
2022-12-16T02:40:22.350Z,0.50
2022-12-16T02:42:58.224Z,0.60
2022-12-16T02:45:32.867Z,0.60
2022-12-16T02:47:59.779Z,0.60
2022-12-16T02:50:47.366Z,0.60
2022-12-16T02:53:14.195Z,0.60
2022-12-16T02:56:12.958Z,0.50
2022-12-16T02:59:05.579Z,0.60
2022-12-16T03:01:59.917Z,0.60
2022-12-16T03:04:50.958Z,0.50
2022-12-16T03:07:21.408Z,0.50
2022-12-16T03:09:53.681Z,0.50
2022-12-16T03:12:23.648Z,0.50
2022-12-16T03:14:55.104Z,0.50
2022-12-16T03:17:27.323Z,0.60
2022-12-16T03:20:07.053Z,0.60
2022-12-16T03:22:40.419Z,0.60
2022-12-16T03:25:09.803Z,0.60
2022-12-16T03:27:53.220Z,0.70
2022-12-16T03:30:36.057Z,0.70
2022-12-16T03:33:11.842Z,0.80
2022-12-16T03:35:50.698Z,0.80
2022-12-16T03:38:22.141Z,0.90
2022-12-16T03:40:51.026Z,0.80
2022-12-16T03:43:18.865Z,0.80
2022-12-16T03:45:51.035Z,0.80
2022-12-16T03:48:22.344Z,0.90
2022-12-16T03:50:49.225Z,0.80
2022-12-16T03:53:16.138Z,0.90
2022-12-16T03:55:42.898Z,0.80
2022-12-16T03:58:10.734Z,0.80
2022-12-16T04:00:37.456Z,0.80
2022-12-16T04:03:04.456Z,0.80
2022-12-16T04:05:31.249Z,0.80
2022-12-16T04:08:01.894Z,0.80
2022-12-16T04:10:48.237Z,0.80
2022-12-16T04:13:33.900Z,0.70
2022-12-16T04:16:19.718Z,0.70
2022-12-16T04:19:06.910Z,0.70
2022-12-16T04:21:52.341Z,0.60
2022-12-16T04:24:23.908Z,0.60
2022-12-16T04:27:15.118Z,0.60
2022-12-16T04:30:01.901Z,0.50
2022-12-16T04:32:53.570Z,0.60
2022-12-16T04:35:39.496Z,0.50
2022-12-16T04:38:24.887Z,0.40
2022-12-16T04:41:11.028Z,0.40
2022-12-16T04:43:56.886Z,0.40
2022-12-16T04:46:42.220Z,0.40
2022-12-16T04:49:28.045Z,0.30
2022-12-16T04:52:14.636Z,0.20
2022-12-16T04:55:02.075Z,0.20
2022-12-16T04:57:47.286Z,0.10
2022-12-16T05:00:33.152Z,0.10
2022-12-16T05:03:18.629Z,0.10
2022-12-16T05:06:04.092Z,0.00
2022-12-16T05:08:53.948Z,-0.10
2022-12-16T05:11:39.354Z,0.00
2022-12-16T05:14:24.792Z,-0.10
2022-12-16T05:17:10.132Z,-0.20
2022-12-16T05:19:55.472Z,-0.20
2022-12-16T05:22:40.839Z,-0.30
2022-12-16T05:25:27.517Z,-0.30
2022-12-16T05:28:18.107Z,-0.30
2022-12-16T05:31:03.664Z,-0.30
2022-12-16T05:33:48.959Z,-0.40
2022-12-16T05:36:34.459Z,-0.40
2022-12-16T05:39:19.830Z,-0.40
2022-12-16T05:42:05.326Z,-0.50
2022-12-16T05:44:50.723Z,-0.50
2022-12-16T05:47:36.179Z,-0.60
2022-12-16T05:50:22.451Z,-0.60
2022-12-16T05:53:13.510Z,-0.60
2022-12-16T05:55:59.478Z,-0.60
2022-12-16T05:58:45.500Z,-0.60
2022-12-16T06:01:31.729Z,-0.70
2022-12-16T06:04:17.877Z,-0.70
2022-12-16T06:07:04.223Z,-0.70
2022-12-16T06:09:54.690Z,-0.70
2022-12-16T06:12:42.287Z,-0.80
2022-12-16T06:15:29.369Z,-0.80
2022-12-16T06:18:14.878Z,-0.80
2022-12-16T06:21:00.213Z,-0.90
2022-12-16T06:23:45.750Z,-0.90
2022-12-16T06:26:31.187Z,-0.90
2022-12-16T06:29:16.487Z,-0.90
2022-12-16T06:32:01.895Z,-1.00
2022-12-16T06:34:49.675Z,-0.90
2022-12-16T06:37:36.895Z,-1.00
2022-12-16T06:40:23.056Z,-1.00
2022-12-16T06:43:08.431Z,-1.00
2022-12-16T06:45:53.902Z,-1.00
2022-12-16T06:48:39.472Z,-1.00
2022-12-16T06:51:26.926Z,-1.10
2022-12-16T06:54:12.291Z,-1.10
2022-12-16T06:56:58.277Z,-1.10
2022-12-16T06:59:43.607Z,-1.10
2022-12-16T07:02:31.430Z,-1.10
2022-12-16T07:05:16.550Z,-1.10
2022-12-16T07:08:09.942Z,-1.20
2022-12-16T07:11:03.397Z,-1.20
2022-12-16T07:13:55.047Z,-1.10
2022-12-16T07:16:40.458Z,-1.10
2022-12-16T07:19:25.693Z,-1.20
2022-12-16T07:22:10.954Z,-1.20
2022-12-16T07:24:56.523Z,-1.20
2022-12-16T07:27:41.977Z,-1.20
2022-12-16T07:30:27.913Z,-1.20
2022-12-16T07:33:13.101Z,-1.20
2022-12-16T07:36:03.173Z,-1.30
2022-12-16T07:38:48.172Z,-1.30
2022-12-16T07:41:33.875Z,-1.30
2022-12-16T07:44:19.110Z,-1.30
2022-12-16T07:47:05.454Z,-1.30
2022-12-16T07:49:50.921Z,-1.30
2022-12-16T07:52:36.195Z,-1.30
2022-12-16T07:55:21.691Z,-1.40
2022-12-16T07:58:10.732Z,-1.40
2022-12-16T08:00:56.195Z,-1.40
2022-12-16T08:03:41.923Z,-1.40
2022-12-16T08:06:27.111Z,-1.50
2022-12-16T08:09:12.646Z,-1.40
2022-12-16T08:11:58.169Z,-1.40
2022-12-16T08:14:43.465Z,-1.40
2022-12-16T08:17:28.937Z,-1.40
2022-12-16T08:20:16.187Z,-1.30
2022-12-16T08:23:01.678Z,-1.30
2022-12-16T08:25:47.082Z,-1.30
2022-12-16T08:28:32.395Z,-1.40
2022-12-16T08:31:19.688Z,-1.30
2022-12-16T08:34:04.788Z,-1.30
2022-12-16T08:36:50.089Z,-1.30
2022-12-16T08:39:36.448Z,-1.30
2022-12-16T08:42:21.838Z,-1.30
2022-12-16T08:45:07.176Z,-1.30
2022-12-16T08:47:52.611Z,-1.30
2022-12-16T08:50:38.142Z,-1.30
2022-12-16T08:53:23.660Z,-1.20
2022-12-16T08:56:08.862Z,-1.10
2022-12-16T08:58:54.103Z,-1.10
2022-12-16T09:01:41.178Z,-1.10
2022-12-16T09:04:26.491Z,-1.00
2022-12-16T09:07:12.027Z,-1.00
2022-12-16T09:09:57.374Z,-0.90
2022-12-16T09:12:42.783Z,-0.90
2022-12-16T09:15:28.583Z,-0.90
2022-12-16T09:18:15.169Z,-0.90
2022-12-16T09:21:05.095Z,-0.80
2022-12-16T09:23:50.638Z,-0.70
2022-12-16T09:26:36.410Z,-0.70
2022-12-16T09:29:22.191Z,-0.60
2022-12-16T09:32:07.580Z,-0.60
2022-12-16T09:34:54.300Z,-0.50
2022-12-16T09:37:39.859Z,-0.50
2022-12-16T09:40:28.396Z,-0.50
2022-12-16T09:43:44.951Z,-0.30
2022-12-16T09:46:44.446Z,-0.30
2022-12-16T09:49:51.045Z,-0.20
2022-12-16T09:52:41.181Z,-0.20
2022-12-16T09:55:49.611Z,-0.20
2022-12-16T09:58:39.112Z,-0.10
2022-12-16T10:01:25.838Z,0.00
2022-12-16T10:04:11.103Z,0.00
2022-12-16T10:07:07.543Z,0.10
2022-12-16T10:10:23.604Z,0.20
2022-12-16T10:13:26.787Z,0.30
2022-12-16T10:16:49.774Z,0.30
2022-12-16T10:20:08.745Z,0.40
2022-12-16T10:23:06.134Z,0.40
2022-12-16T10:26:09.651Z,0.50
2022-12-16T10:29:06.198Z,0.50
2022-12-16T10:31:55.316Z,0.70
2022-12-16T10:34:49.592Z,0.70
2022-12-16T10:37:54.703Z,0.80
2022-12-16T10:40:48.737Z,0.90
2022-12-16T10:43:58.479Z,1.00
2022-12-16T10:46:52.442Z,1.10
2022-12-16T10:49:39.071Z,1.20
2022-12-16T10:52:28.333Z,1.30
2022-12-16T10:55:36.387Z,1.30
2022-12-16T10:58:39.541Z,1.40
2022-12-16T11:01:47.400Z,1.50
2022-12-16T11:04:55.924Z,1.60
2022-12-16T11:07:48.473Z,1.70
2022-12-16T11:11:06.352Z,1.80
2022-12-16T11:13:55.284Z,1.90
2022-12-16T11:16:46.371Z,2.00
2022-12-16T11:19:49.101Z,2.00
2022-12-16T11:22:40.106Z,2.10
2022-12-16T11:25:34.729Z,2.20
2022-12-16T11:28:36.725Z,2.20
2022-12-16T11:31:33.394Z,2.30
2022-12-16T11:34:22.014Z,2.40
2022-12-16T11:37:11.030Z,2.40
2022-12-16T11:39:58.221Z,2.40
2022-12-16T11:42:51.703Z,2.50
2022-12-16T11:45:40.358Z,2.50
2022-12-16T11:49:03.641Z,2.50
2022-12-16T11:52:03.730Z,2.60
2022-12-16T11:56:03.271Z,2.60
2022-12-16T11:59:10.069Z,2.70
2022-12-16T12:02:22.257Z,2.70
2022-12-16T12:05:09.693Z,2.80
2022-12-16T12:08:20.404Z,2.80
2022-12-16T12:11:39.790Z,2.90
2022-12-16T12:15:05.502Z,3.00
2022-12-16T12:18:09.307Z,3.00
2022-12-16T12:21:42.974Z,3.20
2022-12-16T12:25:11.824Z,3.20
2022-12-16T12:28:23.653Z,3.20
2022-12-16T12:31:41.592Z,3.20
2022-12-16T12:35:12.694Z,3.10
2022-12-16T12:38:04.632Z,3.10
2022-12-16T12:41:22.476Z,3.10
2022-12-16T12:44:48.769Z,3.20
2022-12-16T12:47:37.751Z,3.20
2022-12-16T12:50:35.707Z,3.20
2022-12-16T12:54:18.126Z,3.20
2022-12-16T12:57:09.187Z,3.20
2022-12-16T13:00:22.041Z,3.00
2022-12-16T13:03:50.060Z,3.10
2022-12-16T13:06:37.282Z,3.20
2022-12-16T13:09:55.085Z,3.20
2022-12-16T13:12:51.934Z,3.20
2022-12-16T13:16:07.233Z,3.20
2022-12-16T13:18:52.756Z,3.20
2022-12-16T13:22:00.106Z,3.30
2022-12-16T13:24:53.965Z,3.30
2022-12-16T13:27:40.541Z,3.40
2022-12-16T13:30:28.523Z,3.40
2022-12-16T13:33:25.777Z,3.40
2022-12-16T13:36:14.773Z,3.50
2022-12-16T13:39:13.080Z,3.60
2022-12-16T13:41:58.408Z,3.40
2022-12-16T13:45:14.683Z,3.40
2022-12-16T13:48:00.390Z,3.40
2022-12-16T13:51:18.106Z,3.40
2022-12-16T13:54:13.805Z,3.40
2022-12-16T13:57:12.627Z,3.30
2022-12-16T14:00:00.435Z,3.30
2022-12-16T14:02:50.992Z,3.30
2022-12-16T14:05:47.593Z,3.40
2022-12-16T14:08:42.749Z,3.40
2022-12-16T14:11:43.952Z,3.30
2022-12-16T14:15:03.959Z,3.20
2022-12-16T14:18:05.374Z,3.20
2022-12-16T14:21:08.753Z,3.10
2022-12-16T14:24:15.165Z,3.10
2022-12-16T14:27:01.703Z,3.10
2022-12-16T14:29:50.892Z,3.10
2022-12-16T14:32:52.182Z,3.10
2022-12-16T14:35:41.212Z,3.10
2022-12-16T14:38:47.741Z,3.10
2022-12-16T14:41:39.401Z,3.10
2022-12-16T14:44:38.414Z,3.10
2022-12-16T14:47:24.451Z,3.00
2022-12-16T14:50:13.156Z,3.00
2022-12-16T14:52:59.124Z,3.00
2022-12-16T14:55:55.679Z,3.00
2022-12-16T14:58:43.264Z,2.90
2022-12-16T15:01:43.669Z,2.90
2022-12-16T15:04:40.233Z,2.80
2022-12-16T15:07:32.438Z,2.80
2022-12-16T15:10:19.054Z,2.80
2022-12-16T15:13:08.076Z,2.80
2022-12-16T15:16:03.147Z,2.70
2022-12-16T15:18:57.224Z,2.60
2022-12-16T15:21:44.295Z,2.50
2022-12-16T15:24:37.550Z,2.50
2022-12-16T15:27:54.320Z,2.40
2022-12-16T15:31:02.090Z,2.40
2022-12-16T15:33:57.683Z,2.30
2022-12-16T15:36:49.717Z,2.30
2022-12-16T15:39:55.151Z,2.30
2022-12-16T15:42:45.586Z,2.20
2022-12-16T15:45:51.355Z,2.10
2022-12-16T15:48:52.082Z,2.10
2022-12-16T15:51:45.026Z,2.00
2022-12-16T15:55:12.967Z,1.90
2022-12-16T15:57:58.511Z,1.90
2022-12-16T16:00:48.572Z,1.90
2022-12-16T16:03:49.604Z,1.80
2022-12-16T16:06:44.895Z,1.80
2022-12-16T16:09:52.144Z,1.70
2022-12-16T16:12:41.274Z,1.70
2022-12-16T16:15:31.115Z,1.60
2022-12-16T16:18:21.675Z,1.60
2022-12-16T16:21:07.656Z,1.50
2022-12-16T16:23:53.185Z,1.50
2022-12-16T16:26:42.092Z,1.40
2022-12-16T16:29:29.949Z,1.30
2022-12-16T16:32:15.365Z,1.30
2022-12-16T16:35:00.693Z,1.20
2022-12-16T16:37:46.095Z,1.30
2022-12-16T16:40:50.347Z,1.30
2022-12-16T16:43:37.663Z,1.20
2022-12-16T16:46:38.704Z,1.20
2022-12-16T16:49:46.955Z,1.20
2022-12-16T16:52:42.002Z,1.10
2022-12-16T16:55:39.659Z,1.10
2022-12-16T16:58:48.684Z,1.00
2022-12-16T17:01:37.282Z,1.00
2022-12-16T17:04:23.310Z,1.00
2022-12-16T17:07:09.235Z,1.00
2022-12-16T17:09:54.476Z,0.90
2022-12-16T17:12:50.145Z,1.00
2022-12-16T17:15:41.880Z,0.90
2022-12-16T17:18:27.615Z,0.90
2022-12-16T17:21:14.078Z,0.80
2022-12-16T17:23:59.191Z,0.80
2022-12-16T17:26:45.223Z,0.70
2022-12-16T17:29:41.743Z,0.70
2022-12-16T17:32:29.909Z,0.70
2022-12-16T17:35:15.986Z,0.70
2022-12-16T17:38:01.807Z,0.70
2022-12-16T17:40:47.143Z,0.60
2022-12-16T17:43:32.983Z,0.60
2022-12-16T17:46:25.326Z,0.60
2022-12-16T17:49:16.642Z,0.60
2022-12-16T17:52:02.611Z,0.60
2022-12-16T17:54:48.043Z,0.50
2022-12-16T17:57:33.860Z,0.40
2022-12-16T18:00:19.131Z,0.40
2022-12-16T18:03:04.830Z,0.40
2022-12-16T18:05:50.142Z,0.40
2022-12-16T18:08:35.515Z,0.40
2022-12-16T18:11:20.967Z,0.40
2022-12-16T18:14:06.508Z,0.40
2022-12-16T18:17:06.722Z,0.40
2022-12-16T18:19:52.278Z,0.40
2022-12-16T18:22:37.767Z,0.40
2022-12-16T18:25:23.306Z,0.30
2022-12-16T18:28:08.838Z,0.40
2022-12-16T18:30:55.275Z,0.30
2022-12-16T18:33:40.672Z,0.30
2022-12-16T18:36:26.195Z,0.20
2022-12-16T18:39:11.485Z,0.20
2022-12-16T18:42:04.949Z,0.20
2022-12-16T18:44:56.209Z,0.20
2022-12-16T18:47:44.662Z,0.20
2022-12-16T18:50:35.770Z,0.10
2022-12-16T18:53:25.095Z,0.00
2022-12-16T18:56:23.746Z,0.00
2022-12-16T18:59:09.144Z,0.00
2022-12-16T19:01:54.706Z,0.00
2022-12-16T19:04:40.424Z,0.00
2022-12-16T19:07:25.850Z,0.00
2022-12-16T19:10:11.086Z,0.00
2022-12-16T19:12:56.543Z,0.00
2022-12-16T19:15:41.962Z,-0.10
2022-12-16T19:18:31.399Z,-0.10
2022-12-16T19:21:16.850Z,-0.10
2022-12-16T19:24:02.290Z,-0.10
2022-12-16T19:26:48.527Z,-0.10
2022-12-16T19:29:34.055Z,-0.10
2022-12-16T19:32:19.653Z,-0.20
2022-12-16T19:35:04.989Z,-0.20
2022-12-16T19:37:50.875Z,-0.20
2022-12-16T19:40:38.899Z,-0.20
2022-12-16T19:43:24.271Z,-0.20
2022-12-16T19:46:14.834Z,-0.20
2022-12-16T19:49:00.125Z,-0.20
2022-12-16T19:51:45.512Z,-0.20
2022-12-16T19:54:30.962Z,-0.20
2022-12-16T19:57:16.331Z,-0.10
2022-12-16T20:00:01.807Z,-0.10
2022-12-16T20:02:47.361Z,-0.10
2022-12-16T20:05:33.580Z,-0.10
2022-12-16T20:08:29.645Z,0.00
2022-12-16T20:11:15.109Z,0.00
2022-12-16T20:14:00.675Z,0.00
2022-12-16T20:16:46.123Z,0.10
2022-12-16T20:19:31.652Z,0.00
2022-12-16T20:22:17.150Z,0.20
2022-12-16T20:25:02.666Z,0.20
2022-12-16T20:27:48.119Z,0.20
2022-12-16T20:30:33.711Z,0.20
2022-12-16T20:33:19.580Z,0.30
2022-12-16T20:36:15.642Z,0.20
2022-12-16T20:39:00.967Z,0.30
2022-12-16T20:41:47.299Z,0.30
2022-12-16T20:44:32.607Z,0.30
2022-12-16T20:47:17.983Z,0.30
2022-12-16T20:50:03.610Z,0.40
2022-12-16T20:52:49.063Z,0.40
2022-12-16T20:55:34.531Z,0.40
2022-12-16T20:58:22.206Z,0.40
2022-12-16T21:01:16.835Z,0.50
2022-12-16T21:04:02.039Z,0.40
2022-12-16T21:06:47.389Z,0.50
2022-12-16T21:09:32.904Z,0.50
2022-12-16T21:12:19.314Z,0.50
2022-12-16T21:15:06.367Z,0.50
2022-12-16T21:17:51.932Z,0.50
2022-12-16T21:20:37.010Z,0.60
2022-12-16T21:23:25.806Z,0.60
2022-12-16T21:26:11.353Z,0.50
2022-12-16T21:28:57.072Z,0.60
2022-12-16T21:31:42.786Z,0.60
2022-12-16T21:34:28.156Z,0.60
2022-12-16T21:37:13.575Z,0.60
2022-12-16T21:39:58.927Z,0.60
2022-12-16T21:42:45.751Z,0.50
2022-12-16T21:45:31.427Z,0.40
2022-12-16T21:48:16.849Z,0.50
2022-12-16T21:51:02.209Z,0.50
2022-12-16T21:53:48.408Z,0.50
2022-12-16T21:56:33.935Z,0.60
2022-12-16T21:59:19.491Z,0.60
2022-12-16T22:02:05.928Z,0.50
2022-12-16T22:04:53.496Z,0.50
2022-12-16T22:07:38.985Z,0.50
2022-12-16T22:10:24.932Z,0.40
2022-12-16T22:13:10.214Z,0.50
2022-12-16T22:15:59.391Z,0.50
2022-12-16T22:18:48.717Z,0.40
2022-12-16T22:21:34.016Z,0.50
2022-12-16T22:24:20.502Z,0.50
2022-12-16T22:27:05.811Z,0.60
2022-12-16T22:29:51.173Z,0.60
2022-12-16T22:32:37.099Z,0.50
2022-12-16T22:35:22.442Z,0.50
2022-12-16T22:38:07.995Z,0.50
2022-12-16T22:40:53.390Z,0.50
2022-12-16T22:43:50.319Z,0.50
2022-12-16T22:46:36.027Z,0.50
2022-12-16T22:49:21.447Z,0.50
2022-12-16T22:52:06.855Z,0.50
2022-12-16T22:54:52.536Z,0.50
2022-12-16T22:57:38.546Z,0.50
2022-12-16T23:00:25.578Z,0.50
2022-12-16T23:03:11.014Z,0.60
2022-12-16T23:05:56.411Z,0.60
2022-12-16T23:08:41.816Z,0.60
2022-12-16T23:11:39.792Z,0.50
2022-12-16T23:14:27.207Z,0.40
2022-12-16T23:17:12.697Z,0.40
2022-12-16T23:19:58.038Z,0.50
2022-12-16T23:22:43.458Z,0.50
2022-12-16T23:25:28.947Z,0.50
2022-12-16T23:28:14.269Z,0.50
2022-12-16T23:30:59.734Z,0.50
2022-12-16T23:33:45.116Z,0.40
2022-12-16T23:36:30.407Z,0.30
2022-12-16T23:39:15.873Z,0.30
2022-12-16T23:42:02.208Z,0.40
2022-12-16T23:44:49.764Z,0.40
2022-12-16T23:47:39.466Z,0.40
2022-12-16T23:50:25.423Z,0.40
2022-12-16T23:53:27.218Z,0.40
2022-12-16T23:56:18.978Z,0.40
2022-12-16T23:59:07.137Z,0.40
